sensor_id;sensor_type;location;lat;lon;timestamp;P1;durP1;ratioP1;P2;durP2;ratioP2
19343;SDS011;9808;52.402;16.678;2022-12-10T00:01:38;88.17;;;31.03;;
19343;SDS011;9808;52.402;16.678;2022-12-10T00:04:06;79.53;;;30.90;;
19343;SDS011;9808;52.402;16.678;2022-12-10T00:06:34;78.43;;;29.50;;
19343;SDS011;9808;52.402;16.678;2022-12-10T00:09:02;90.20;;;31.87;;
19343;SDS011;9808;52.402;16.678;2022-12-10T00:11:29;83.07;;;30.77;;
19343;SDS011;9808;52.402;16.678;2022-12-10T00:13:57;83.83;;;30.03;;
19343;SDS011;9808;52.402;16.678;2022-12-10T00:16:25;91.07;;;30.27;;
19343;SDS011;9808;52.402;16.678;2022-12-10T00:18:53;96.67;;;31.43;;
19343;SDS011;9808;52.402;16.678;2022-12-10T00:21:21;84.37;;;30.07;;
19343;SDS011;9808;52.402;16.678;2022-12-10T00:23:49;83.53;;;28.87;;
19343;SDS011;9808;52.402;16.678;2022-12-10T00:26:17;89.40;;;31.20;;
19343;SDS011;9808;52.402;16.678;2022-12-10T00:28:45;84.57;;;30.23;;
19343;SDS011;9808;52.402;16.678;2022-12-10T00:31:16;89.87;;;29.80;;
19343;SDS011;9808;52.402;16.678;2022-12-10T00:33:44;77.43;;;29.20;;
19343;SDS011;9808;52.402;16.678;2022-12-10T00:36:16;82.53;;;29.50;;
19343;SDS011;9808;52.402;16.678;2022-12-10T00:38:44;89.73;;;31.77;;
19343;SDS011;9808;52.402;16.678;2022-12-10T00:41:12;84.40;;;29.40;;
19343;SDS011;9808;52.402;16.678;2022-12-10T00:43:39;86.03;;;32.00;;
19343;SDS011;9808;52.402;16.678;2022-12-10T00:46:07;80.77;;;29.33;;
19343;SDS011;9808;52.402;16.678;2022-12-10T00:48:34;78.80;;;28.17;;
19343;SDS011;9808;52.402;16.678;2022-12-10T00:51:06;83.20;;;28.97;;
19343;SDS011;9808;52.402;16.678;2022-12-10T00:53:34;82.60;;;30.40;;
19343;SDS011;9808;52.402;16.678;2022-12-10T00:56:02;84.30;;;30.20;;
19343;SDS011;9808;52.402;16.678;2022-12-10T00:58:30;91.10;;;29.77;;
19343;SDS011;9808;52.402;16.678;2022-12-10T01:03:37;89.70;;;30.83;;
19343;SDS011;9808;52.402;16.678;2022-12-10T01:06:09;83.37;;;28.33;;
19343;SDS011;9808;52.402;16.678;2022-12-10T01:08:37;86.00;;;29.57;;
19343;SDS011;9808;52.402;16.678;2022-12-10T01:11:04;91.93;;;30.43;;
19343;SDS011;9808;52.402;16.678;2022-12-10T01:13:31;77.80;;;26.07;;
19343;SDS011;9808;52.402;16.678;2022-12-10T01:16:05;85.93;;;30.77;;
19343;SDS011;9808;52.402;16.678;2022-12-10T01:18:33;78.57;;;28.07;;
19343;SDS011;9808;52.402;16.678;2022-12-10T01:21:01;80.27;;;29.67;;
19343;SDS011;9808;52.402;16.678;2022-12-10T01:23:33;78.73;;;28.47;;
19343;SDS011;9808;52.402;16.678;2022-12-10T01:26:04;84.60;;;29.73;;
19343;SDS011;9808;52.402;16.678;2022-12-10T01:28:32;79.63;;;28.73;;
19343;SDS011;9808;52.402;16.678;2022-12-10T01:31:04;75.83;;;28.43;;
19343;SDS011;9808;52.402;16.678;2022-12-10T01:33:31;85.57;;;29.60;;
19343;SDS011;9808;52.402;16.678;2022-12-10T01:36:06;75.83;;;27.97;;
19343;SDS011;9808;52.402;16.678;2022-12-10T01:38:34;81.07;;;29.63;;
19343;SDS011;9808;52.402;16.678;2022-12-10T01:41:01;79.20;;;28.93;;
19343;SDS011;9808;52.402;16.678;2022-12-10T01:46:16;79.43;;;28.20;;
19343;SDS011;9808;52.402;16.678;2022-12-10T01:48:43;86.77;;;30.27;;
19343;SDS011;9808;52.402;16.678;2022-12-10T01:51:11;81.50;;;28.97;;
19343;SDS011;9808;52.402;16.678;2022-12-10T01:53:39;73.30;;;29.03;;
19343;SDS011;9808;52.402;16.678;2022-12-10T01:56:08;74.70;;;27.63;;
19343;SDS011;9808;52.402;16.678;2022-12-10T01:58:36;85.10;;;28.77;;
19343;SDS011;9808;52.402;16.678;2022-12-10T02:01:05;73.97;;;30.10;;
19343;SDS011;9808;52.402;16.678;2022-12-10T02:03:41;80.57;;;28.97;;
19343;SDS011;9808;52.402;16.678;2022-12-10T02:11:44;77.03;;;29.13;;
19343;SDS011;9808;52.402;16.678;2022-12-10T02:14:23;85.20;;;30.90;;
19343;SDS011;9808;52.402;16.678;2022-12-10T02:16:57;78.13;;;28.60;;
19343;SDS011;9808;52.402;16.678;2022-12-10T02:19:30;84.63;;;30.27;;
19343;SDS011;9808;52.402;16.678;2022-12-10T02:22:00;81.80;;;29.93;;
19343;SDS011;9808;52.402;16.678;2022-12-10T02:24:28;75.00;;;30.53;;
19343;SDS011;9808;52.402;16.678;2022-12-10T02:29:42;71.70;;;27.93;;
19343;SDS011;9808;52.402;16.678;2022-12-10T02:32:11;79.27;;;28.90;;
19343;SDS011;9808;52.402;16.678;2022-12-10T02:34:43;77.13;;;29.13;;
19343;SDS011;9808;52.402;16.678;2022-12-10T02:37:27;72.63;;;29.27;;
19343;SDS011;9808;52.402;16.678;2022-12-10T02:39:56;74.60;;;28.13;;
19343;SDS011;9808;52.402;16.678;2022-12-10T02:42:24;71.47;;;28.13;;
19343;SDS011;9808;52.402;16.678;2022-12-10T02:44:52;72.77;;;29.73;;
19343;SDS011;9808;52.402;16.678;2022-12-10T02:47:20;80.40;;;29.50;;
19343;SDS011;9808;52.402;16.678;2022-12-10T02:49:49;69.30;;;28.13;;
19343;SDS011;9808;52.402;16.678;2022-12-10T02:52:18;80.83;;;31.23;;
19343;SDS011;9808;52.402;16.678;2022-12-10T02:54:46;76.13;;;28.67;;
19343;SDS011;9808;52.402;16.678;2022-12-10T02:59:47;76.10;;;28.73;;
19343;SDS011;9808;52.402;16.678;2022-12-10T03:02:19;74.70;;;29.73;;
19343;SDS011;9808;52.402;16.678;2022-12-10T03:04:47;71.97;;;29.90;;
19343;SDS011;9808;52.402;16.678;2022-12-10T03:07:22;71.50;;;27.37;;
19343;SDS011;9808;52.402;16.678;2022-12-10T03:09:53;71.43;;;29.40;;
19343;SDS011;9808;52.402;16.678;2022-12-10T03:14:48;71.27;;;27.83;;
19343;SDS011;9808;52.402;16.678;2022-12-10T03:17:15;71.83;;;28.23;;
19343;SDS011;9808;52.402;16.678;2022-12-10T03:19:44;77.13;;;28.27;;
19343;SDS011;9808;52.402;16.678;2022-12-10T03:22:12;67.30;;;26.83;;
19343;SDS011;9808;52.402;16.678;2022-12-10T03:24:40;70.30;;;27.60;;
19343;SDS011;9808;52.402;16.678;2022-12-10T03:27:08;73.93;;;28.37;;
19343;SDS011;9808;52.402;16.678;2022-12-10T03:29:37;64.77;;;26.90;;
19343;SDS011;9808;52.402;16.678;2022-12-10T03:32:06;67.53;;;28.27;;
19343;SDS011;9808;52.402;16.678;2022-12-10T03:34:33;66.80;;;25.47;;
19343;SDS011;9808;52.402;16.678;2022-12-10T03:37:01;71.97;;;28.10;;
19343;SDS011;9808;52.402;16.678;2022-12-10T03:39:29;67.37;;;27.00;;
19343;SDS011;9808;52.402;16.678;2022-12-10T03:41:56;69.00;;;27.30;;
19343;SDS011;9808;52.402;16.678;2022-12-10T03:44:30;69.13;;;27.13;;
19343;SDS011;9808;52.402;16.678;2022-12-10T03:46:58;74.03;;;26.43;;
19343;SDS011;9808;52.402;16.678;2022-12-10T03:49:25;64.60;;;26.33;;
19343;SDS011;9808;52.402;16.678;2022-12-10T03:51:52;67.00;;;27.33;;
19343;SDS011;9808;52.402;16.678;2022-12-10T03:54:19;66.50;;;27.23;;
19343;SDS011;9808;52.402;16.678;2022-12-10T03:56:47;69.07;;;27.50;;
19343;SDS011;9808;52.402;16.678;2022-12-10T03:59:14;69.60;;;26.30;;
19343;SDS011;9808;52.402;16.678;2022-12-10T04:01:41;66.87;;;25.60;;
19343;SDS011;9808;52.402;16.678;2022-12-10T04:04:08;71.17;;;26.17;;
19343;SDS011;9808;52.402;16.678;2022-12-10T04:06:39;62.30;;;25.53;;
19343;SDS011;9808;52.402;16.678;2022-12-10T04:09:08;68.30;;;25.73;;
19343;SDS011;9808;52.402;16.678;2022-12-10T04:11:36;70.40;;;24.97;;
19343;SDS011;9808;52.402;16.678;2022-12-10T04:14:03;68.27;;;26.30;;
19343;SDS011;9808;52.402;16.678;2022-12-10T04:16:49;64.67;;;25.50;;
19343;SDS011;9808;52.402;16.678;2022-12-10T04:19:17;68.53;;;25.67;;
19343;SDS011;9808;52.402;16.678;2022-12-10T04:21:45;72.43;;;25.30;;
19343;SDS011;9808;52.402;16.678;2022-12-10T04:24:32;74.30;;;25.97;;
19343;SDS011;9808;52.402;16.678;2022-12-10T04:27:37;67.20;;;24.77;;
19343;SDS011;9808;52.402;16.678;2022-12-10T04:30:05;60.43;;;25.33;;
19343;SDS011;9808;52.402;16.678;2022-12-10T04:32:34;69.77;;;26.67;;
19343;SDS011;9808;52.402;16.678;2022-12-10T04:35:01;65.20;;;25.90;;
19343;SDS011;9808;52.402;16.678;2022-12-10T04:37:28;65.10;;;25.10;;
19343;SDS011;9808;52.402;16.678;2022-12-10T04:39:56;66.63;;;26.23;;
19343;SDS011;9808;52.402;16.678;2022-12-10T04:42:23;70.90;;;27.10;;
19343;SDS011;9808;52.402;16.678;2022-12-10T04:44:50;67.27;;;26.10;;
19343;SDS011;9808;52.402;16.678;2022-12-10T04:47:17;69.40;;;24.87;;
19343;SDS011;9808;52.402;16.678;2022-12-10T04:49:44;60.70;;;25.37;;
19343;SDS011;9808;52.402;16.678;2022-12-10T04:52:12;64.90;;;24.47;;
19343;SDS011;9808;52.402;16.678;2022-12-10T04:54:40;66.87;;;24.70;;
19343;SDS011;9808;52.402;16.678;2022-12-10T04:57:08;60.37;;;23.83;;
19343;SDS011;9808;52.402;16.678;2022-12-10T04:59:35;65.07;;;24.40;;
19343;SDS011;9808;52.402;16.678;2022-12-10T05:02:03;55.07;;;22.63;;
19343;SDS011;9808;52.402;16.678;2022-12-10T05:04:31;51.60;;;22.33;;
19343;SDS011;9808;52.402;16.678;2022-12-10T05:06:58;48.97;;;21.17;;
19343;SDS011;9808;52.402;16.678;2022-12-10T05:09:25;45.07;;;20.30;;
19343;SDS011;9808;52.402;16.678;2022-12-10T05:11:53;47.73;;;18.43;;
19343;SDS011;9808;52.402;16.678;2022-12-10T05:14:20;48.03;;;19.93;;
19343;SDS011;9808;52.402;16.678;2022-12-10T05:16:48;43.83;;;18.57;;
19343;SDS011;9808;52.402;16.678;2022-12-10T05:19:16;48.83;;;20.43;;
19343;SDS011;9808;52.402;16.678;2022-12-10T05:21:45;45.77;;;18.60;;
19343;SDS011;9808;52.402;16.678;2022-12-10T05:24:32;41.57;;;18.30;;
19343;SDS011;9808;52.402;16.678;2022-12-10T05:26:59;49.70;;;19.63;;
19343;SDS011;9808;52.402;16.678;2022-12-10T05:29:26;43.47;;;17.27;;
19343;SDS011;9808;52.402;16.678;2022-12-10T05:31:53;42.67;;;19.03;;
19343;SDS011;9808;52.402;16.678;2022-12-10T05:34:20;44.93;;;18.30;;
19343;SDS011;9808;52.402;16.678;2022-12-10T05:36:47;41.53;;;17.70;;
19343;SDS011;9808;52.402;16.678;2022-12-10T05:39:14;44.60;;;17.73;;
19343;SDS011;9808;52.402;16.678;2022-12-10T05:41:41;46.27;;;19.53;;
19343;SDS011;9808;52.402;16.678;2022-12-10T05:44:10;42.73;;;18.00;;
19343;SDS011;9808;52.402;16.678;2022-12-10T05:46:37;47.20;;;18.50;;
19343;SDS011;9808;52.402;16.678;2022-12-10T05:49:05;39.50;;;17.63;;
19343;SDS011;9808;52.402;16.678;2022-12-10T05:51:33;48.13;;;19.23;;
19343;SDS011;9808;52.402;16.678;2022-12-10T05:54:02;43.20;;;17.60;;
19343;SDS011;9808;52.402;16.678;2022-12-10T05:56:30;49.83;;;19.10;;
19343;SDS011;9808;52.402;16.678;2022-12-10T05:58:58;46.33;;;18.57;;
19343;SDS011;9808;52.402;16.678;2022-12-10T06:01:27;43.10;;;19.40;;
19343;SDS011;9808;52.402;16.678;2022-12-10T06:03:54;43.77;;;18.67;;
19343;SDS011;9808;52.402;16.678;2022-12-10T06:06:24;42.80;;;19.20;;
19343;SDS011;9808;52.402;16.678;2022-12-10T06:08:51;44.50;;;19.00;;
19343;SDS011;9808;52.402;16.678;2022-12-10T06:11:18;45.10;;;19.10;;
19343;SDS011;9808;52.402;16.678;2022-12-10T06:13:46;41.87;;;17.70;;
19343;SDS011;9808;52.402;16.678;2022-12-10T06:16:21;44.17;;;18.30;;
19343;SDS011;9808;52.402;16.678;2022-12-10T06:18:48;42.03;;;18.77;;
19343;SDS011;9808;52.402;16.678;2022-12-10T06:21:16;44.00;;;17.20;;
19343;SDS011;9808;52.402;16.678;2022-12-10T06:23:43;48.17;;;19.43;;
19343;SDS011;9808;52.402;16.678;2022-12-10T06:26:12;47.10;;;19.03;;
19343;SDS011;9808;52.402;16.678;2022-12-10T06:28:39;44.57;;;18.87;;
19343;SDS011;9808;52.402;16.678;2022-12-10T06:31:06;48.97;;;19.67;;
19343;SDS011;9808;52.402;16.678;2022-12-10T06:33:34;53.13;;;19.80;;
19343;SDS011;9808;52.402;16.678;2022-12-10T06:36:05;53.37;;;21.07;;
19343;SDS011;9808;52.402;16.678;2022-12-10T06:38:32;48.83;;;20.00;;
19343;SDS011;9808;52.402;16.678;2022-12-10T06:41:00;48.97;;;20.50;;
19343;SDS011;9808;52.402;16.678;2022-12-10T06:43:30;47.10;;;20.10;;
19343;SDS011;9808;52.402;16.678;2022-12-10T06:45:57;48.80;;;19.47;;
19343;SDS011;9808;52.402;16.678;2022-12-10T06:48:25;46.33;;;19.67;;
19343;SDS011;9808;52.402;16.678;2022-12-10T06:50:52;54.93;;;21.77;;
19343;SDS011;9808;52.402;16.678;2022-12-10T06:53:19;56.90;;;23.10;;
19343;SDS011;9808;52.402;16.678;2022-12-10T06:55:46;66.23;;;23.50;;
19343;SDS011;9808;52.402;16.678;2022-12-10T06:58:13;57.20;;;24.37;;
19343;SDS011;9808;52.402;16.678;2022-12-10T07:00:40;60.37;;;24.23;;
19343;SDS011;9808;52.402;16.678;2022-12-10T07:03:07;60.80;;;25.90;;
19343;SDS011;9808;52.402;16.678;2022-12-10T07:05:34;62.10;;;24.77;;
19343;SDS011;9808;52.402;16.678;2022-12-10T07:08:02;60.40;;;23.83;;
19343;SDS011;9808;52.402;16.678;2022-12-10T07:10:29;68.27;;;25.77;;
19343;SDS011;9808;52.402;16.678;2022-12-10T07:12:56;56.07;;;23.83;;
19343;SDS011;9808;52.402;16.678;2022-12-10T07:15:23;58.50;;;24.10;;
19343;SDS011;9808;52.402;16.678;2022-12-10T07:17:51;64.93;;;25.93;;
19343;SDS011;9808;52.402;16.678;2022-12-10T07:20:18;65.57;;;25.73;;
19343;SDS011;9808;52.402;16.678;2022-12-10T07:22:45;68.03;;;25.97;;
19343;SDS011;9808;52.402;16.678;2022-12-10T07:25:12;66.27;;;25.40;;
19343;SDS011;9808;52.402;16.678;2022-12-10T07:27:39;77.60;;;27.10;;
19343;SDS011;9808;52.402;16.678;2022-12-10T07:30:06;65.43;;;25.63;;
19343;SDS011;9808;52.402;16.678;2022-12-10T07:32:34;66.23;;;25.20;;
19343;SDS011;9808;52.402;16.678;2022-12-10T07:35:01;75.87;;;29.40;;
19343;SDS011;9808;52.402;16.678;2022-12-10T07:37:29;68.70;;;28.53;;
19343;SDS011;9808;52.402;16.678;2022-12-10T07:39:56;70.13;;;27.73;;
19343;SDS011;9808;52.402;16.678;2022-12-10T07:42:23;75.77;;;29.50;;
19343;SDS011;9808;52.402;16.678;2022-12-10T07:44:50;69.63;;;28.83;;
19343;SDS011;9808;52.402;16.678;2022-12-10T07:47:17;76.27;;;29.03;;
19343;SDS011;9808;52.402;16.678;2022-12-10T07:49:45;69.13;;;29.57;;
19343;SDS011;9808;52.402;16.678;2022-12-10T07:52:12;73.97;;;28.17;;
19343;SDS011;9808;52.402;16.678;2022-12-10T07:54:40;70.43;;;27.93;;
19343;SDS011;9808;52.402;16.678;2022-12-10T07:57:07;78.17;;;30.00;;
19343;SDS011;9808;52.402;16.678;2022-12-10T07:59:34;72.10;;;27.73;;
19343;SDS011;9808;52.402;16.678;2022-12-10T08:02:01;69.93;;;28.20;;
19343;SDS011;9808;52.402;16.678;2022-12-10T08:04:34;74.67;;;28.33;;
19343;SDS011;9808;52.402;16.678;2022-12-10T08:07:01;75.67;;;28.13;;
19343;SDS011;9808;52.402;16.678;2022-12-10T08:09:28;65.77;;;27.47;;
19343;SDS011;9808;52.402;16.678;2022-12-10T08:11:55;65.23;;;27.13;;
19343;SDS011;9808;52.402;16.678;2022-12-10T08:14:22;67.83;;;26.70;;
19343;SDS011;9808;52.402;16.678;2022-12-10T08:16:49;71.90;;;27.53;;
19343;SDS011;9808;52.402;16.678;2022-12-10T08:19:17;62.70;;;24.40;;
19343;SDS011;9808;52.402;16.678;2022-12-10T08:21:49;68.23;;;26.10;;
19343;SDS011;9808;52.402;16.678;2022-12-10T08:24:17;62.37;;;26.57;;
19343;SDS011;9808;52.402;16.678;2022-12-10T08:26:44;63.17;;;25.53;;
19343;SDS011;9808;52.402;16.678;2022-12-10T08:29:11;57.83;;;24.33;;
19343;SDS011;9808;52.402;16.678;2022-12-10T08:31:38;58.80;;;25.03;;
19343;SDS011;9808;52.402;16.678;2022-12-10T08:34:10;57.10;;;25.53;;
19343;SDS011;9808;52.402;16.678;2022-12-10T08:36:38;56.60;;;24.57;;
19343;SDS011;9808;52.402;16.678;2022-12-10T08:39:05;63.37;;;24.83;;
19343;SDS011;9808;52.402;16.678;2022-12-10T08:41:33;64.57;;;24.97;;
19343;SDS011;9808;52.402;16.678;2022-12-10T08:44:00;60.20;;;24.23;;
19343;SDS011;9808;52.402;16.678;2022-12-10T08:46:27;60.23;;;24.97;;
19343;SDS011;9808;52.402;16.678;2022-12-10T08:48:54;59.53;;;24.67;;
19343;SDS011;9808;52.402;16.678;2022-12-10T08:51:22;60.17;;;24.37;;
19343;SDS011;9808;52.402;16.678;2022-12-10T08:53:49;55.70;;;24.67;;
19343;SDS011;9808;52.402;16.678;2022-12-10T08:56:16;56.60;;;22.83;;
19343;SDS011;9808;52.402;16.678;2022-12-10T08:58:44;58.17;;;24.60;;
19343;SDS011;9808;52.402;16.678;2022-12-10T09:01:12;54.07;;;23.13;;
19343;SDS011;9808;52.402;16.678;2022-12-10T09:03:39;53.50;;;22.70;;
19343;SDS011;9808;52.402;16.678;2022-12-10T09:06:12;52.63;;;21.90;;
19343;SDS011;9808;52.402;16.678;2022-12-10T09:08:40;58.57;;;22.70;;
19343;SDS011;9808;52.402;16.678;2022-12-10T09:11:08;49.73;;;21.80;;
19343;SDS011;9808;52.402;16.678;2022-12-10T09:13:36;54.23;;;21.40;;
19343;SDS011;9808;52.402;16.678;2022-12-10T09:16:03;52.00;;;21.50;;
19343;SDS011;9808;52.402;16.678;2022-12-10T09:18:31;47.80;;;20.20;;
19343;SDS011;9808;52.402;16.678;2022-12-10T09:20:58;46.00;;;21.00;;
19343;SDS011;9808;52.402;16.678;2022-12-10T09:23:25;45.47;;;19.83;;
19343;SDS011;9808;52.402;16.678;2022-12-10T09:25:52;46.07;;;19.50;;
19343;SDS011;9808;52.402;16.678;2022-12-10T09:28:19;41.87;;;18.90;;
19343;SDS011;9808;52.402;16.678;2022-12-10T09:30:54;47.70;;;19.37;;
19343;SDS011;9808;52.402;16.678;2022-12-10T09:33:21;42.87;;;18.40;;
19343;SDS011;9808;52.402;16.678;2022-12-10T09:35:48;41.97;;;17.70;;
19343;SDS011;9808;52.402;16.678;2022-12-10T09:38:15;36.27;;;17.43;;
19343;SDS011;9808;52.402;16.678;2022-12-10T09:45:56;37.13;;;16.63;;
19343;SDS011;9808;52.402;16.678;2022-12-10T09:51:02;37.83;;;15.63;;
19343;SDS011;9808;52.402;16.678;2022-12-10T09:53:31;35.37;;;15.87;;
19343;SDS011;9808;52.402;16.678;2022-12-10T09:55:59;40.20;;;16.43;;
19343;SDS011;9808;52.402;16.678;2022-12-10T09:58:27;34.70;;;15.97;;
19343;SDS011;9808;52.402;16.678;2022-12-10T10:01:00;39.60;;;16.13;;
19343;SDS011;9808;52.402;16.678;2022-12-10T10:03:29;32.80;;;15.23;;
19343;SDS011;9808;52.402;16.678;2022-12-10T10:05:57;35.03;;;15.70;;
19343;SDS011;9808;52.402;16.678;2022-12-10T10:08:31;38.83;;;15.80;;
19343;SDS011;9808;52.402;16.678;2022-12-10T10:11:00;35.30;;;15.07;;
19343;SDS011;9808;52.402;16.678;2022-12-10T10:13:34;35.80;;;14.90;;
19343;SDS011;9808;52.402;16.678;2022-12-10T10:16:17;34.60;;;14.83;;
19343;SDS011;9808;52.402;16.678;2022-12-10T10:18:46;33.27;;;14.17;;
19343;SDS011;9808;52.402;16.678;2022-12-10T10:21:17;33.60;;;15.17;;
19343;SDS011;9808;52.402;16.678;2022-12-10T10:23:47;30.70;;;13.43;;
19343;SDS011;9808;52.402;16.678;2022-12-10T10:26:15;31.87;;;13.70;;
19343;SDS011;9808;52.402;16.678;2022-12-10T10:28:42;31.67;;;14.70;;
19343;SDS011;9808;52.402;16.678;2022-12-10T10:31:20;33.03;;;16.30;;
19343;SDS011;9808;52.402;16.678;2022-12-10T10:33:49;32.43;;;14.20;;
19343;SDS011;9808;52.402;16.678;2022-12-10T10:36:26;30.97;;;14.63;;
19343;SDS011;9808;52.402;16.678;2022-12-10T10:38:54;34.53;;;14.77;;
19343;SDS011;9808;52.402;16.678;2022-12-10T10:41:23;37.30;;;15.67;;
19343;SDS011;9808;52.402;16.678;2022-12-10T10:43:52;33.47;;;14.00;;
19343;SDS011;9808;52.402;16.678;2022-12-10T10:46:21;31.47;;;13.80;;
19343;SDS011;9808;52.402;16.678;2022-12-10T10:48:49;30.83;;;14.43;;
19343;SDS011;9808;52.402;16.678;2022-12-10T10:51:21;35.77;;;15.53;;
19343;SDS011;9808;52.402;16.678;2022-12-10T10:53:52;29.90;;;13.80;;
19343;SDS011;9808;52.402;16.678;2022-12-10T10:56:23;29.37;;;14.10;;
19343;SDS011;9808;52.402;16.678;2022-12-10T11:01:18;32.57;;;14.23;;
19343;SDS011;9808;52.402;16.678;2022-12-10T11:03:47;31.23;;;14.43;;
19343;SDS011;9808;52.402;16.678;2022-12-10T11:06:15;30.50;;;14.07;;
19343;SDS011;9808;52.402;16.678;2022-12-10T11:08:43;29.63;;;13.63;;
19343;SDS011;9808;52.402;16.678;2022-12-10T11:11:12;33.73;;;14.50;;
19343;SDS011;9808;52.402;16.678;2022-12-10T11:13:40;30.10;;;13.53;;
19343;SDS011;9808;52.402;16.678;2022-12-10T11:16:18;29.17;;;13.53;;
19343;SDS011;9808;52.402;16.678;2022-12-10T11:19:21;32.03;;;14.00;;
19343;SDS011;9808;52.402;16.678;2022-12-10T11:21:39;32.80;;;14.57;;
19343;SDS011;9808;52.402;16.678;2022-12-10T11:24:10;34.47;;;15.03;;
19343;SDS011;9808;52.402;16.678;2022-12-10T11:32:05;33.87;;;14.20;;
19343;SDS011;9808;52.402;16.678;2022-12-10T11:55:27;33.83;;;14.63;;
19343;SDS011;9808;52.402;16.678;2022-12-10T11:58:09;28.83;;;13.90;;
19343;SDS011;9808;52.402;16.678;2022-12-10T12:00:59;34.90;;;14.30;;
19343;SDS011;9808;52.402;16.678;2022-12-10T12:03:38;35.13;;;14.00;;
19343;SDS011;9808;52.402;16.678;2022-12-10T12:06:20;32.90;;;14.57;;
19343;SDS011;9808;52.402;16.678;2022-12-10T12:08:57;32.93;;;13.80;;
19343;SDS011;9808;52.402;16.678;2022-12-10T12:14:12;32.00;;;14.10;;
19343;SDS011;9808;52.402;16.678;2022-12-10T12:16:42;34.87;;;13.63;;
19343;SDS011;9808;52.402;16.678;2022-12-10T12:19:17;31.93;;;14.40;;
19343;SDS011;9808;52.402;16.678;2022-12-10T12:21:46;32.30;;;15.27;;
19343;SDS011;9808;52.402;16.678;2022-12-10T12:24:16;29.27;;;13.83;;
19343;SDS011;9808;52.402;16.678;2022-12-10T12:26:52;33.33;;;13.40;;
19343;SDS011;9808;52.402;16.678;2022-12-10T12:31:54;29.73;;;13.97;;
19343;SDS011;9808;52.402;16.678;2022-12-10T12:34:25;30.30;;;13.80;;
19343;SDS011;9808;52.402;16.678;2022-12-10T12:36:53;29.77;;;13.70;;
19343;SDS011;9808;52.402;16.678;2022-12-10T12:39:23;32.47;;;14.50;;
19343;SDS011;9808;52.402;16.678;2022-12-10T12:47:16;31.93;;;14.93;;
19343;SDS011;9808;52.402;16.678;2022-12-10T12:49:46;29.60;;;13.43;;
19343;SDS011;9808;52.402;16.678;2022-12-10T12:52:22;30.57;;;13.93;;
19343;SDS011;9808;52.402;16.678;2022-12-10T12:54:53;32.90;;;14.43;;
19343;SDS011;9808;52.402;16.678;2022-12-10T12:57:32;30.10;;;13.80;;
19343;SDS011;9808;52.402;16.678;2022-12-10T13:05:20;29.97;;;14.77;;
19343;SDS011;9808;52.402;16.678;2022-12-10T13:10:43;34.67;;;14.50;;
19343;SDS011;9808;52.402;16.678;2022-12-10T13:13:21;28.43;;;13.50;;
19343;SDS011;9808;52.402;16.678;2022-12-10T13:15:50;29.97;;;13.47;;
19343;SDS011;9808;52.402;16.678;2022-12-10T13:18:34;31.10;;;13.90;;
19343;SDS011;9808;52.402;16.678;2022-12-10T13:23:51;27.67;;;13.50;;
19343;SDS011;9808;52.402;16.678;2022-12-10T13:26:25;31.87;;;14.70;;
19343;SDS011;9808;52.402;16.678;2022-12-10T13:28:54;30.77;;;14.00;;
19343;SDS011;9808;52.402;16.678;2022-12-10T13:31:22;35.73;;;14.53;;
19343;SDS011;9808;52.402;16.678;2022-12-10T13:41:32;29.60;;;13.87;;
19343;SDS011;9808;52.402;16.678;2022-12-10T13:44:37;31.83;;;13.80;;
19343;SDS011;9808;52.402;16.678;2022-12-10T13:49:47;31.27;;;14.60;;
19343;SDS011;9808;52.402;16.678;2022-12-10T13:52:19;33.83;;;14.93;;
19343;SDS011;9808;52.402;16.678;2022-12-10T13:57:37;31.00;;;14.00;;
19343;SDS011;9808;52.402;16.678;2022-12-10T14:00:15;30.30;;;13.63;;
19343;SDS011;9808;52.402;16.678;2022-12-10T14:03:09;33.17;;;14.03;;
19343;SDS011;9808;52.402;16.678;2022-12-10T14:08:16;31.20;;;13.67;;
19343;SDS011;9808;52.402;16.678;2022-12-10T14:10:44;31.07;;;13.73;;
19343;SDS011;9808;52.402;16.678;2022-12-10T14:13:13;28.53;;;13.67;;
19343;SDS011;9808;52.402;16.678;2022-12-10T14:15:45;28.90;;;13.37;;
19343;SDS011;9808;52.402;16.678;2022-12-10T14:18:14;29.30;;;13.57;;
19343;SDS011;9808;52.402;16.678;2022-12-10T14:20:46;30.23;;;14.13;;
19343;SDS011;9808;52.402;16.678;2022-12-10T14:23:21;29.67;;;13.13;;
19343;SDS011;9808;52.402;16.678;2022-12-10T14:26:06;32.47;;;14.13;;
19343;SDS011;9808;52.402;16.678;2022-12-10T14:28:37;32.27;;;14.27;;
19343;SDS011;9808;52.402;16.678;2022-12-10T14:31:05;33.77;;;14.77;;
19343;SDS011;9808;52.402;16.678;2022-12-10T14:33:33;36.50;;;15.10;;
19343;SDS011;9808;52.402;16.678;2022-12-10T14:36:01;32.70;;;14.67;;
19343;SDS011;9808;52.402;16.678;2022-12-10T14:38:32;28.00;;;11.03;;
19343;SDS011;9808;52.402;16.678;2022-12-10T14:41:00;26.27;;;12.97;;
19343;SDS011;9808;52.402;16.678;2022-12-10T14:43:32;30.23;;;13.43;;
19343;SDS011;9808;52.402;16.678;2022-12-10T14:46:03;31.67;;;13.43;;
19343;SDS011;9808;52.402;16.678;2022-12-10T14:48:30;27.13;;;13.20;;
19343;SDS011;9808;52.402;16.678;2022-12-10T14:51:13;31.70;;;14.13;;
19343;SDS011;9808;52.402;16.678;2022-12-10T14:53:41;32.23;;;14.53;;
19343;SDS011;9808;52.402;16.678;2022-12-10T14:56:10;31.83;;;13.87;;
19343;SDS011;9808;52.402;16.678;2022-12-10T14:58:42;35.40;;;15.10;;
19343;SDS011;9808;52.402;16.678;2022-12-10T15:01:16;32.63;;;14.83;;
19343;SDS011;9808;52.402;16.678;2022-12-10T15:03:45;28.73;;;13.87;;
19343;SDS011;9808;52.402;16.678;2022-12-10T15:06:13;30.77;;;14.37;;
19343;SDS011;9808;52.402;16.678;2022-12-10T15:08:42;27.30;;;13.07;;
19343;SDS011;9808;52.402;16.678;2022-12-10T15:11:10;29.10;;;13.07;;
19343;SDS011;9808;52.402;16.678;2022-12-10T15:13:39;31.07;;;12.37;;
19343;SDS011;9808;52.402;16.678;2022-12-10T15:16:15;30.57;;;13.30;;
19343;SDS011;9808;52.402;16.678;2022-12-10T15:18:43;28.33;;;13.47;;
19343;SDS011;9808;52.402;16.678;2022-12-10T15:21:21;34.07;;;14.07;;
19343;SDS011;9808;52.402;16.678;2022-12-10T15:23:49;30.07;;;14.07;;
19343;SDS011;9808;52.402;16.678;2022-12-10T15:26:20;34.87;;;15.10;;
19343;SDS011;9808;52.402;16.678;2022-12-10T15:28:48;32.70;;;14.50;;
19343;SDS011;9808;52.402;16.678;2022-12-10T15:34:06;30.17;;;13.70;;
19343;SDS011;9808;52.402;16.678;2022-12-10T15:36:41;33.03;;;13.93;;
19343;SDS011;9808;52.402;16.678;2022-12-10T15:39:25;33.40;;;14.10;;
19343;SDS011;9808;52.402;16.678;2022-12-10T15:41:57;32.20;;;15.47;;
19343;SDS011;9808;52.402;16.678;2022-12-10T15:47:18;29.97;;;14.73;;
19343;SDS011;9808;52.402;16.678;2022-12-10T15:49:46;30.13;;;13.33;;
19343;SDS011;9808;52.402;16.678;2022-12-10T15:52:14;28.57;;;13.60;;
19343;SDS011;9808;52.402;16.678;2022-12-10T15:54:43;34.53;;;14.60;;
19343;SDS011;9808;52.402;16.678;2022-12-10T15:57:20;30.67;;;13.50;;
19343;SDS011;9808;52.402;16.678;2022-12-10T15:59:48;30.37;;;12.93;;
19343;SDS011;9808;52.402;16.678;2022-12-10T16:04:43;28.37;;;12.53;;
19343;SDS011;9808;52.402;16.678;2022-12-10T16:07:10;26.77;;;11.27;;
19343;SDS011;9808;52.402;16.678;2022-12-10T16:09:37;26.60;;;11.60;;
19343;SDS011;9808;52.402;16.678;2022-12-10T16:12:06;28.83;;;12.53;;
19343;SDS011;9808;52.402;16.678;2022-12-10T16:14:34;22.97;;;11.50;;
19343;SDS011;9808;52.402;16.678;2022-12-10T16:17:01;25.60;;;11.80;;